createdAt,value
2023-01-29T00:03:17.438Z,11.90
2023-01-29T00:08:20.104Z,13.25
2023-01-29T00:13:22.939Z,12.77
2023-01-29T00:18:25.690Z,16.02
2023-01-29T00:23:28.194Z,14.30
2023-01-29T00:28:30.559Z,13.85
2023-01-29T00:33:32.671Z,16.10
2023-01-29T00:38:35.649Z,15.95
2023-01-29T00:43:56.145Z,15.23
2023-01-29T00:49:00.635Z,21.27
2023-01-29T00:54:04.569Z,15.90
2023-01-29T00:59:07.014Z,13.40
2023-01-29T01:04:11.951Z,16.70
2023-01-29T01:09:32.916Z,13.02
2023-01-29T01:14:36.600Z,12.65
2023-01-29T01:19:38.856Z,9.65
2023-01-29T01:24:41.057Z,11.07
2023-01-29T01:29:43.379Z,15.82
2023-01-29T01:34:48.623Z,12.27
2023-01-29T01:39:50.926Z,10.35
2023-01-29T01:45:05.656Z,10.30
2023-01-29T01:50:12.024Z,10.88
2023-01-29T01:55:16.845Z,11.85
2023-01-29T02:00:20.689Z,13.05
2023-01-29T02:05:41.527Z,14.02
2023-01-29T02:10:46.631Z,9.35
2023-01-29T02:15:49.036Z,10.27
2023-01-29T02:21:15.928Z,9.93
2023-01-29T02:26:30.480Z,8.98
2023-01-29T02:31:41.948Z,6.32
2023-01-29T02:37:06.971Z,8.18
2023-01-29T02:42:38.904Z,6.72
2023-01-29T02:47:41.046Z,12.25
2023-01-29T02:52:57.013Z,10.45
2023-01-29T02:58:09.215Z,10.70
2023-01-29T03:03:31.106Z,11.30
2023-01-29T03:08:45.791Z,8.10
2023-01-29T03:14:10.767Z,6.47
2023-01-29T03:19:19.057Z,10.30
2023-01-29T03:25:11.554Z,12.32
2023-01-29T03:30:36.026Z,4.68
2023-01-29T03:36:02.595Z,6.10
2023-01-29T03:41:20.025Z,5.72
2023-01-29T03:46:30.399Z,4.72
2023-01-29T03:52:02.916Z,5.40
2023-01-29T04:02:30.227Z,3.72
2023-01-29T04:07:36.945Z,9.95
2023-01-29T04:12:45.050Z,3.75
2023-01-29T04:17:54.201Z,2.85
2023-01-29T04:23:08.040Z,4.93
2023-01-29T04:28:22.151Z,3.80
2023-01-29T04:33:30.179Z,6.45
2023-01-29T04:38:58.549Z,4.70
2023-01-29T04:44:10.038Z,8.35
2023-01-29T04:49:41.966Z,5.72
2023-01-29T04:55:06.573Z,4.88
2023-01-29T05:00:12.653Z,5.75
2023-01-29T05:05:16.810Z,6.32
2023-01-29T05:10:21.669Z,4.95
2023-01-29T05:15:27.570Z,5.60
2023-01-29T05:20:33.475Z,4.57
2023-01-29T05:25:35.692Z,4.90
2023-01-29T05:30:39.605Z,4.28
2023-01-29T05:35:42.100Z,4.63
2023-01-29T05:40:44.289Z,3.67
2023-01-29T05:45:59.924Z,6.30
2023-01-29T05:51:03.517Z,4.93
2023-01-29T05:56:06.031Z,5.72
2023-01-29T06:01:19.993Z,3.92
2023-01-29T06:06:22.422Z,4.97
2023-01-29T06:11:25.053Z,4.32
2023-01-29T06:16:27.427Z,3.92
2023-01-29T06:21:29.856Z,3.80
2023-01-29T06:26:32.335Z,4.70
2023-01-29T06:31:39.314Z,3.97
2023-01-29T06:36:42.015Z,4.55
2023-01-29T06:41:45.676Z,3.70
2023-01-29T06:46:47.741Z,5.28
2023-01-29T06:51:49.773Z,6.63
2023-01-29T06:56:52.935Z,4.68
2023-01-29T07:01:55.175Z,4.50
2023-01-29T07:06:57.308Z,5.72
2023-01-29T07:11:59.409Z,6.32
2023-01-29T07:17:01.486Z,2.90
2023-01-29T07:22:04.129Z,2.85
2023-01-29T07:27:06.222Z,2.92
2023-01-29T07:32:08.555Z,2.90
2023-01-29T07:37:11.675Z,4.32
2023-01-29T07:42:13.926Z,3.85
2023-01-29T07:47:17.272Z,2.70
2023-01-29T07:52:21.910Z,5.75
2023-01-29T07:57:25.088Z,3.70
2023-01-29T08:02:27.144Z,4.65
2023-01-29T08:07:29.300Z,5.03
2023-01-29T08:12:31.430Z,9.48
2023-01-29T08:17:33.575Z,5.85
2023-01-29T08:22:36.322Z,5.40
2023-01-29T08:27:38.573Z,4.80
2023-01-29T08:32:40.753Z,4.47
2023-01-29T08:37:43.158Z,5.70
2023-01-29T08:42:45.274Z,5.45
2023-01-29T08:47:48.391Z,7.28
2023-01-29T08:52:50.444Z,5.47
2023-01-29T08:57:57.739Z,6.30
2023-01-29T09:03:01.120Z,6.85
2023-01-29T09:08:03.675Z,8.02
2023-01-29T09:13:06.360Z,4.57
2023-01-29T09:18:08.615Z,5.95
2023-01-29T09:23:11.349Z,7.28
2023-01-29T09:28:13.662Z,5.75
2023-01-29T09:33:16.173Z,4.20
2023-01-29T09:38:18.328Z,5.57
2023-01-29T09:43:25.069Z,7.00
2023-01-29T09:48:31.225Z,7.28
2023-01-29T09:53:44.422Z,5.57
2023-01-29T09:58:46.763Z,3.80
2023-01-29T10:04:08.231Z,5.10
2023-01-29T10:09:23.254Z,3.60
2023-01-29T10:14:57.036Z,4.07
2023-01-29T10:20:34.925Z,6.07
2023-01-29T10:25:40.612Z,5.60
2023-01-29T10:30:48.359Z,4.57
2023-01-29T10:35:55.794Z,6.85
2023-01-29T10:41:12.922Z,5.28
2023-01-29T10:46:36.960Z,5.18
2023-01-29T10:52:11.286Z,9.68
2023-01-29T10:57:32.046Z,3.90
2023-01-29T11:02:34.201Z,3.25
2023-01-29T11:07:36.711Z,2.63
2023-01-29T11:12:39.333Z,4.65
2023-01-29T11:18:01.813Z,13.00
2023-01-29T11:23:05.684Z,15.82
2023-01-29T11:28:11.029Z,9.02
2023-01-29T11:33:20.158Z,4.88
2023-01-29T11:38:25.474Z,3.22
2023-01-29T11:43:27.522Z,10.73
2023-01-29T11:48:51.902Z,6.07
2023-01-29T11:53:58.305Z,12.88
2023-01-29T11:59:02.458Z,11.25
2023-01-29T12:04:16.818Z,7.13
2023-01-29T12:09:25.329Z,3.33
2023-01-29T12:14:36.222Z,16.70
2023-01-29T12:19:43.996Z,10.15
2023-01-29T12:24:58.318Z,7.57
2023-01-29T12:30:03.027Z,3.42
2023-01-29T12:35:18.589Z,8.80
2023-01-29T12:40:24.530Z,3.15
2023-01-29T12:50:33.090Z,9.95
2023-01-29T12:55:40.846Z,3.13
2023-01-29T13:00:47.917Z,3.72
2023-01-29T13:06:00.629Z,3.00
2023-01-29T13:11:07.379Z,8.65
2023-01-29T13:16:13.228Z,11.80
2023-01-29T13:21:21.808Z,3.90
2023-01-29T13:26:24.666Z,3.40
2023-01-29T13:31:37.955Z,9.48
2023-01-29T13:36:48.478Z,7.40
2023-01-29T13:41:51.643Z,7.18
2023-01-29T13:47:10.477Z,3.83
2023-01-29T13:52:32.229Z,3.08
2023-01-29T13:57:48.286Z,1.75
2023-01-29T14:02:56.538Z,2.83
2023-01-29T14:08:14.203Z,11.57
2023-01-29T14:13:18.980Z,14.88
2023-01-29T14:18:21.981Z,7.88
2023-01-29T14:23:42.908Z,5.78
2023-01-29T14:32:42.597Z,2.80
2023-01-29T14:34:43.691Z,3.60
2023-01-29T14:39:54.134Z,2.70
2023-01-29T14:44:58.203Z,3.65
2023-01-29T14:50:02.179Z,1.60
2023-01-29T14:55:08.371Z,4.68
2023-01-29T15:05:39.602Z,6.45
2023-01-29T15:11:15.227Z,8.52
2023-01-29T15:16:24.579Z,6.85
2023-01-29T15:21:26.724Z,7.78
2023-01-29T15:26:28.993Z,8.77
2023-01-29T15:31:31.835Z,6.25
2023-01-29T15:36:34.348Z,2.85
2023-01-29T15:41:38.394Z,1.33
2023-01-29T15:46:42.257Z,3.97
2023-01-29T15:51:44.548Z,2.97
2023-01-29T15:56:50.151Z,1.95
2023-01-29T16:01:54.556Z,2.55
2023-01-29T16:06:57.122Z,4.88
2023-01-29T16:11:59.546Z,2.10
2023-01-29T16:17:24.998Z,2.33
2023-01-29T16:22:32.496Z,3.30
2023-01-29T16:27:35.325Z,2.38
2023-01-29T16:32:37.471Z,3.30
2023-01-29T16:37:40.162Z,2.25
2023-01-29T16:42:42.931Z,4.63
2023-01-29T16:47:44.940Z,2.15
2023-01-29T16:52:58.576Z,3.08
2023-01-29T16:58:04.345Z,1.77
2023-01-29T17:08:21.318Z,3.70
2023-01-29T17:13:35.127Z,3.72
2023-01-29T17:18:46.154Z,2.25
2023-01-29T17:23:48.372Z,2.10
2023-01-29T17:28:53.409Z,3.08
2023-01-29T17:33:55.911Z,4.20
2023-01-29T17:38:58.393Z,2.10
2023-01-29T17:44:00.964Z,3.33
2023-01-29T17:49:04.745Z,2.75
2023-01-29T17:54:07.191Z,5.10
2023-01-29T17:59:14.602Z,5.57
2023-01-29T18:04:17.675Z,4.35
2023-01-29T18:09:21.071Z,8.32
2023-01-29T18:14:23.780Z,3.03
2023-01-29T18:19:31.251Z,4.22
2023-01-29T18:24:34.194Z,2.10
2023-01-29T18:29:36.375Z,6.93
2023-01-29T18:34:38.614Z,5.15
2023-01-29T18:39:41.074Z,4.32
2023-01-29T18:44:43.341Z,5.38
2023-01-29T18:49:45.762Z,10.32
2023-01-29T18:54:47.790Z,5.10
2023-01-29T18:59:50.157Z,5.47
2023-01-29T19:04:52.540Z,6.15
2023-01-29T19:09:54.663Z,11.73
2023-01-29T19:14:56.873Z,7.40
2023-01-29T19:20:02.194Z,7.70
2023-01-29T19:25:05.422Z,9.05
2023-01-29T19:30:08.618Z,6.32
2023-01-29T19:35:11.187Z,5.63
2023-01-29T19:40:13.380Z,9.65
2023-01-29T19:45:15.730Z,10.30
2023-01-29T19:50:18.003Z,9.05
2023-01-29T19:55:21.172Z,9.70
2023-01-29T20:00:25.910Z,6.30
2023-01-29T20:05:28.096Z,8.23
2023-01-29T20:10:30.126Z,4.80
2023-01-29T20:15:32.391Z,5.55
2023-01-29T20:20:34.324Z,5.13
2023-01-29T20:25:37.775Z,8.45
2023-01-29T20:30:40.782Z,5.47
2023-01-29T20:35:43.093Z,6.72
2023-01-29T20:40:45.166Z,5.10
2023-01-29T20:45:47.232Z,8.00
2023-01-29T20:50:49.632Z,9.52
2023-01-29T20:55:53.519Z,10.57
2023-01-29T21:00:55.856Z,6.97
2023-01-29T21:05:59.289Z,6.25
2023-01-29T21:11:02.183Z,5.95
2023-01-29T21:16:05.121Z,3.85
2023-01-29T21:21:07.805Z,6.68
2023-01-29T21:26:10.216Z,4.97
2023-01-29T21:31:14.823Z,6.40
2023-01-29T21:36:17.206Z,5.50
2023-01-29T21:41:19.577Z,3.75
2023-01-29T21:46:21.885Z,5.72
2023-01-29T21:51:24.562Z,5.40
2023-01-29T21:56:27.668Z,5.63
2023-01-29T22:01:38.114Z,15.13
2023-01-29T22:06:41.558Z,11.82
2023-01-29T22:11:43.654Z,13.05
2023-01-29T22:16:46.341Z,8.45
2023-01-29T22:21:48.434Z,4.68
2023-01-29T22:26:50.515Z,10.57
2023-01-29T22:31:53.937Z,8.80
2023-01-29T22:36:55.916Z,4.63
2023-01-29T22:41:58.107Z,3.35
2023-01-29T22:47:00.997Z,3.45
2023-01-29T22:52:12.260Z,3.80
2023-01-29T22:57:15.403Z,4.63
2023-01-29T23:02:17.780Z,3.20
2023-01-29T23:07:21.126Z,3.08
2023-01-29T23:12:23.341Z,4.65
2023-01-29T23:17:25.517Z,4.43
2023-01-29T23:22:27.625Z,5.60
2023-01-29T23:27:29.903Z,7.53
2023-01-29T23:32:32.024Z,5.25
2023-01-29T23:37:34.658Z,6.63
2023-01-29T23:42:36.797Z,4.28
2023-01-29T23:47:39.096Z,4.03
2023-01-29T23:52:41.157Z,3.13
2023-01-29T23:57:43.150Z,3.30
